Norton, TX (76865)

10:36 AM CST on December 03, 2016 (GMT -0600)
West of Lake Winters | | Change Station

Elev 1834 ft 31.96 °N, 99.88 °W | Updated 29 seconds ago

Overcast
Overcast
45.3 °F
Feels Like 44 °F
N
3.6
Wind Variable Wind from ENE
Gusts 4.9 mph

Today
High -- | Low -- °F
--% Chance of Precip.
Yesterday
High -- | Low -- °F
Precip. -- in
Pressure 30.07 in
Visibility 5.0 miles
Clouds Overcast 400 ft
Windchill 44 °F
Dew Point 45 °F
Humidity 97%
Rainfall 0.40 in
Snow Depth Not available.
7:24 AM 5:36 PM
Waxing Crescent, 16% visible
SPECI KDYS 031628Z AUTO 03006KT 5SM BR OVC004 07/07 A3007 RMK AO2 OVC V BKN $
Pressure 30.07 in
Visibility 5.0 miles
Clouds Overcast 400 ft
Windchill 44 °F
Dew Point 45 °F
Humidity 97%
Rainfall 0.40 in
Snow Depth Not available.
7:24 AM 5:36 PM
Waxing Crescent, 16% visible
SPECI KDYS 031628Z AUTO 03006KT 5SM BR OVC004 07/07 A3007 RMK AO2 OVC V BKN $

10-Day Weather Forecast

Almanac

Astronomy

Dec. 03, 2016 Rise Set
Actual Time
Civil Twilight
Nautical Twilight
Astronomical Twilight
Moon
Length of Visible Light
Length of Day
Tomorrow will be .
, % of the Moon is Illuminated

Today's Extremes

State Highs State Lows

Community

WunderPhotos

Upload Photos

1,955,440 photos uploaded!

WunderBlog® & News

Nearby

Air Quality

  Air Quality AQ Index Pollutant
Not available.

Snow Depth

Station Depth Elevation

Earthquake Activity

City Distance Mag. Time & Date
Minimum magnitude displayed is 2.5.

Coastal Water Temperatures

Place Temperature

Stations

Nearby Weather Stations

Station Location Temp. Windchill Dew Point Humidity Wind Precip. Elev Updated Type
                   

Watches & Warnings

There are currently no watches in effect.